This demonstration page uses our WeatherBlox Daily Observations layout. Learn more.

39.29038, -76.61219

Hourly Observations for December 13, 2018

Temp ( °F °C ) Dew Point ( °F °C ) Humidity (%) Winds ( mph kmh ) Pressure ( in mb ) Visibility ( mi km ) Precip ( " mm )
12:54 am 00:54 undefined 40 4.4 32 0 73 73 undefined N/A 30.18 1022 N/A 0 0
1:54 am 01:54 undefined 40 4.4 31 -0.6 70 70 undefined N/A 30.21 1023 N/A 0 0
2:54 am 02:54 undefined 40 4.4 32 0 73 73 undefined N/A 30.21 1023 N/A 0 0
3:54 am 03:54 undefined 41 5 34 1.1 76 76 undefined N/A 30.21 1023 N/A 0 0
4:54 am 04:54 undefined 41 5 34 1.1 76 76 undefined N/A 30.21 1023 N/A 0 0
5:54 am 05:54 undefined 42 5.6 34 1.1 73 73 undefined N/A 30.21 1023 N/A 0 0
6:54 am 06:54 undefined 42 5.6 33 0.6 71 71 undefined N/A 30.24 1024 N/A 0 0
7:54 am 07:54 undefined 42 5.6 34 1.1 73 73 undefined N/A 30.27 1025 N/A 0 0
8:54 am 08:54 undefined 43 6.1 33 0.6 68 68 undefined N/A 30.3 1026 N/A 0 0
9:54 am 09:54 undefined 44 6.7 33 0.6 65 65 undefined N/A 30.3 1026 N/A 0 0
10:54 am 10:54 undefined 45 7.2 32 0 61 61 undefined N/A 30.3 1026 N/A 0 0
11:54 am 11:54 undefined 45 7.2 35 1.7 68 68 undefined N/A 30.3 1026 N/A 0 0
12:54 pm 12:54 undefined 48 8.9 34 1.1 58 58 undefined N/A 30.3 1026 N/A 0 0
1:54 pm 13:54 undefined 49 9.4 33 0.6 55 55 undefined N/A 30.3 1026 N/A 0 0
2:54 pm 14:54 undefined 48 8.9 33 0.6 56 56 undefined N/A 30.3 1026 N/A 0 0
3:54 pm 15:54 undefined 47 8.3 33 0.6 59 59 undefined N/A 30.33 1027 N/A 0 0
4:54 pm 16:54 undefined 46 7.8 33 0.6 61 61 undefined N/A 30.33 1027 N/A 0 0
5:54 pm 17:54 undefined 46 7.8 33 0.6 61 61 undefined N/A 30.36 1028 N/A 0 0
6:54 pm 18:54 undefined 47 8.3 33 0.6 59 59 undefined N/A 30.36 1028 N/A 0 0
7:54 pm 19:54 undefined 45 7.2 34 1.1 66 66 undefined N/A 30.39 1029 N/A 0 0
8:54 pm 20:54 undefined 45 7.2 35 1.7 68 68 undefined N/A 30.39 1029 N/A 0 0
9:54 pm 21:54 undefined 45 7.2 36 2.2 71 71 undefined N/A 30.39 1029 N/A 0 0
10:54 pm 22:54 undefined 45 7.2 36 2.2 71 71 undefined N/A 30.39 1029 N/A 0 0
11:54 pm 23:54 undefined 44 6.7 36 2.2 73 73 undefined N/A 30.39 1029 N/A 0 0

Powered by AerisWeather